createdAt,value
2023-04-22T00:01:30.785Z,53.53
2023-04-22T00:05:01.448Z,53.48
2023-04-22T00:08:11.296Z,53.15
2023-04-22T00:14:57.321Z,52.87
2023-04-22T00:18:03.707Z,53.40
2023-04-22T00:21:18.305Z,52.65
2023-04-22T00:24:21.207Z,52.50
2023-04-22T00:27:37.173Z,53.04
2023-04-22T00:30:39.101Z,52.90
2023-04-22T00:33:53.300Z,52.55
2023-04-22T00:36:55.094Z,52.96
2023-04-22T00:40:09.717Z,53.02
2023-04-22T00:43:18.355Z,53.17
2023-04-22T00:46:40.381Z,53.10
2023-04-22T00:49:50.429Z,53.55
2023-04-22T00:52:58.635Z,53.84
2023-04-22T00:56:08.419Z,53.36
2023-04-22T00:59:17.507Z,53.39
2023-04-22T01:02:26.151Z,53.73
2023-04-22T01:05:37.362Z,54.89
2023-04-22T01:08:46.425Z,55.62
2023-04-22T01:11:55.849Z,55.29
2023-04-22T01:15:05.270Z,54.72
2023-04-22T01:18:22.300Z,55.33
2023-04-22T01:21:41.311Z,55.22
2023-04-22T01:25:04.342Z,55.42
2023-04-22T01:28:20.467Z,54.91
2023-04-22T01:31:23.852Z,55.39
2023-04-22T01:34:40.083Z,55.60
2023-04-22T01:37:41.858Z,56.35
2023-04-22T01:40:57.454Z,56.52
2023-04-22T01:44:08.562Z,56.46
2023-04-22T01:47:16.915Z,56.08
2023-04-22T01:50:26.346Z,55.82
2023-04-22T01:53:36.093Z,56.18
2023-04-22T01:56:45.355Z,55.71
2023-04-22T01:59:54.042Z,55.89
2023-04-22T02:03:02.504Z,56.15
2023-04-22T02:06:17.333Z,56.62
2023-04-22T02:09:19.180Z,57.02
2023-04-22T02:12:34.387Z,57.51
2023-04-22T02:15:43.056Z,57.91
2023-04-22T02:18:57.369Z,58.21
2023-04-22T02:22:05.902Z,58.30
2023-04-22T02:25:15.874Z,58.55
2023-04-22T02:28:27.061Z,58.73
2023-04-22T02:31:35.831Z,58.98
2023-04-22T02:34:53.620Z,58.63
2023-04-22T02:38:19.420Z,58.78
2023-04-22T02:41:34.545Z,59.19
2023-04-22T02:45:08.442Z,59.75
2023-04-22T02:48:16.390Z,60.07
2023-04-22T02:51:32.461Z,60.27
2023-04-22T02:54:40.377Z,60.46
2023-04-22T02:57:50.017Z,60.65
2023-04-22T03:00:58.670Z,60.56
2023-04-22T03:04:13.607Z,60.51
2023-04-22T03:07:15.699Z,60.33
2023-04-22T03:10:32.472Z,60.54
2023-04-22T03:13:41.889Z,60.58
2023-04-22T03:16:53.158Z,60.55
2023-04-22T03:20:15.405Z,60.73
2023-04-22T03:23:23.911Z,60.87
2023-04-22T03:26:32.854Z,61.01
2023-04-22T03:29:42.365Z,60.74
2023-04-22T03:32:51.471Z,60.98
2023-04-22T03:36:06.405Z,61.21
2023-04-22T03:39:15.400Z,61.46
2023-04-22T03:42:31.442Z,61.70
2023-04-22T03:45:46.399Z,61.96
2023-04-22T03:48:54.916Z,62.35
2023-04-22T03:52:06.442Z,62.40
2023-04-22T03:55:15.250Z,62.23
2023-04-22T03:58:23.404Z,62.04
2023-04-22T04:01:31.995Z,62.16
2023-04-22T04:04:43.775Z,61.98
2023-04-22T04:11:14.241Z,62.86
2023-04-22T04:14:29.866Z,62.60
2023-04-22T04:17:38.545Z,62.34
2023-04-22T04:20:53.442Z,62.72
2023-04-22T04:23:55.878Z,63.38
2023-04-22T04:27:31.540Z,62.60
2023-04-22T04:30:46.407Z,62.97
2023-04-22T04:33:54.916Z,62.79
2023-04-22T04:37:03.407Z,62.66
2023-04-22T04:40:28.458Z,62.13
2023-04-22T04:43:43.435Z,62.19
2023-04-22T04:47:12.634Z,61.94
2023-04-22T04:50:15.240Z,61.69
2023-04-22T04:53:30.488Z,61.77
2023-04-22T04:56:39.581Z,61.31
2023-04-22T04:59:49.273Z,61.07
2023-04-22T05:03:04.582Z,60.92
2023-04-22T05:06:07.278Z,61.48
2023-04-22T05:09:36.441Z,61.36
2023-04-22T05:12:51.439Z,61.11
2023-04-22T05:15:59.758Z,61.01
2023-04-22T05:19:15.485Z,61.00
2023-04-22T05:22:17.197Z,61.19
2023-04-22T05:25:32.434Z,60.65
2023-04-22T05:28:41.122Z,60.45
2023-04-22T05:31:49.254Z,60.46
2023-04-22T05:34:59.683Z,60.92
2023-04-22T05:38:14.501Z,60.86
2023-04-22T05:41:17.237Z,61.21
2023-04-22T05:44:52.673Z,60.84
2023-04-22T05:48:01.505Z,59.67
2023-04-22T05:51:10.341Z,59.51
2023-04-22T05:54:18.459Z,59.14
2023-04-22T05:57:36.954Z,59.06
2023-04-22T06:00:48.463Z,58.75
2023-04-22T06:03:57.361Z,57.92
2023-04-22T06:07:07.535Z,57.28
2023-04-22T06:10:23.278Z,55.88
2023-04-22T06:13:25.420Z,55.50
2023-04-22T06:19:56.095Z,53.58
2023-04-22T06:23:26.460Z,53.65
2023-04-22T06:26:41.513Z,53.54
2023-04-22T06:29:43.260Z,53.20
2023-04-22T06:32:58.559Z,52.62
2023-04-22T06:36:00.283Z,51.12
2023-04-22T06:39:17.839Z,50.45
2023-04-22T06:42:20.153Z,50.39
2023-04-22T06:45:42.535Z,49.39
2023-04-22T06:48:51.524Z,49.18
2023-04-22T06:52:06.481Z,48.28
2023-04-22T06:55:21.514Z,47.70
2023-04-22T06:58:23.335Z,46.05
2023-04-22T07:01:38.528Z,45.39
2023-04-22T07:04:49.094Z,43.63
2023-04-22T07:08:00.414Z,43.62
2023-04-22T07:11:16.570Z,42.31
2023-04-22T07:14:35.060Z,40.98
2023-04-22T07:17:50.580Z,38.92
2023-04-22T07:21:00.121Z,38.13
2023-04-22T07:24:08.491Z,37.08
2023-04-22T07:27:23.501Z,37.42
2023-04-22T07:30:25.584Z,37.69
2023-04-22T07:33:40.544Z,36.36
2023-04-22T07:37:01.242Z,36.26
2023-04-22T07:40:30.083Z,36.02
2023-04-22T07:43:41.627Z,35.47
2023-04-22T07:46:57.551Z,34.64
2023-04-22T07:50:05.562Z,34.82
2023-04-22T07:53:20.557Z,34.91
2023-04-22T07:56:29.528Z,35.01
2023-04-22T07:59:42.590Z,35.20
2023-04-22T08:03:00.633Z,35.31
2023-04-22T08:06:15.855Z,34.77
2023-04-22T08:09:24.549Z,34.92
2023-04-22T08:12:33.477Z,33.92
2023-04-22T08:15:41.675Z,33.62
2023-04-22T08:22:14.533Z,32.98
2023-04-22T08:25:25.628Z,32.27
2023-04-22T08:28:42.597Z,32.57
2023-04-22T08:32:17.618Z,32.58
2023-04-22T08:35:27.797Z,32.21
2023-04-22T08:38:37.628Z,31.84
2023-04-22T08:41:53.581Z,31.27
2023-04-22T08:48:49.466Z,30.05
2023-04-22T08:52:05.648Z,29.82
2023-04-22T08:55:14.203Z,29.41
2023-04-22T08:58:22.557Z,29.76
2023-04-22T09:01:38.950Z,30.07
2023-04-22T09:05:01.782Z,30.00
2023-04-22T09:08:10.414Z,30.15
2023-04-22T09:11:26.619Z,29.89
2023-04-22T09:14:40.061Z,29.46
2023-04-22T09:17:51.624Z,30.11
2023-04-22T09:21:20.740Z,29.96
2023-04-22T09:24:22.726Z,29.96
2023-04-22T09:27:39.401Z,29.61
2023-04-22T09:30:41.123Z,29.90
2023-04-22T09:37:14.176Z,29.26
2023-04-22T09:40:29.661Z,28.94
2023-04-22T09:43:32.783Z,29.16
2023-04-22T09:50:14.609Z,27.87
2023-04-22T09:53:29.687Z,28.00
2023-04-22T09:56:52.153Z,28.55
2023-04-22T10:00:00.623Z,27.61
2023-04-22T10:03:11.222Z,27.28
2023-04-22T10:06:19.634Z,27.68
2023-04-22T10:09:31.144Z,27.08
2023-04-22T10:12:45.679Z,26.88
2023-04-22T10:16:02.940Z,25.07
2023-04-22T10:19:13.678Z,19.15
2023-04-22T10:22:22.894Z,17.36
2023-04-22T10:25:32.746Z,15.27
2023-04-22T10:28:43.953Z,14.64
2023-04-22T10:32:13.705Z,14.20
2023-04-22T10:35:40.332Z,14.02
2023-04-22T10:39:22.110Z,13.02
2023-04-22T10:42:28.803Z,12.89
2023-04-22T10:45:47.732Z,12.34
2023-04-22T10:48:57.762Z,13.58
2023-04-22T10:52:13.707Z,12.53
2023-04-22T10:55:17.020Z,13.17
2023-04-22T10:58:34.066Z,12.83
2023-04-22T11:01:41.625Z,12.15
2023-04-22T11:05:29.725Z,12.00
2023-04-22T11:08:37.683Z,11.46
2023-04-22T11:11:52.727Z,14.86
2023-04-22T11:14:56.868Z,17.70
2023-04-22T11:18:15.674Z,19.56
2023-04-22T11:21:18.525Z,19.76
2023-04-22T11:24:33.948Z,19.10
2023-04-22T11:27:44.031Z,18.85
2023-04-22T11:30:52.810Z,18.76
2023-04-22T11:34:10.038Z,19.73
2023-04-22T11:37:11.767Z,21.31
2023-04-22T11:40:45.679Z,22.21
2023-04-22T11:43:55.053Z,22.19
2023-04-22T11:47:09.684Z,22.00
2023-04-22T11:50:12.747Z,21.80
2023-04-22T11:53:29.026Z,22.05
2023-04-22T11:56:48.935Z,22.24
2023-04-22T11:59:57.738Z,23.21
2023-04-22T12:03:21.229Z,24.20
2023-04-22T12:06:36.760Z,24.29
2023-04-22T12:09:45.833Z,22.88
2023-04-22T12:12:55.725Z,23.11
2023-04-22T12:16:16.946Z,23.57
2023-04-22T12:19:32.720Z,22.05
2023-04-22T12:22:47.761Z,22.01
2023-04-22T12:25:49.759Z,21.55
2023-04-22T12:29:06.805Z,22.76
2023-04-22T12:32:15.674Z,22.48
2023-04-22T12:38:54.693Z,22.28
2023-04-22T12:41:56.562Z,22.60
2023-04-22T12:45:11.714Z,22.30
2023-04-22T12:51:56.748Z,23.67
2023-04-22T12:55:11.784Z,23.73
2023-04-22T12:58:13.916Z,23.58
2023-04-22T13:01:29.772Z,23.92
2023-04-22T13:04:32.517Z,24.01
2023-04-22T13:07:56.454Z,24.20
2023-04-22T13:11:17.763Z,24.04
2023-04-22T13:14:26.253Z,24.42
2023-04-22T13:17:35.087Z,24.60
2023-04-22T13:20:51.130Z,25.05
2023-04-22T13:24:00.811Z,24.39
2023-04-22T13:27:09.581Z,24.47
2023-04-22T13:30:23.749Z,24.25
2023-04-22T13:33:33.640Z,23.44
2023-04-22T13:36:48.756Z,24.21
2023-04-22T13:39:57.288Z,23.31
2023-04-22T13:43:09.335Z,23.78
2023-04-22T13:46:17.912Z,23.51
2023-04-22T13:49:40.149Z,23.35
2023-04-22T13:55:57.112Z,22.86
2023-04-22T13:59:05.321Z,23.08
2023-04-22T14:02:19.827Z,23.95
2023-04-22T14:05:27.759Z,23.84
2023-04-22T14:08:38.117Z,24.21
2023-04-22T14:11:46.856Z,24.67
2023-04-22T14:15:01.812Z,24.98
2023-04-22T14:18:09.818Z,24.94
2023-04-22T14:21:21.006Z,25.01
2023-04-22T14:24:29.809Z,25.20
2023-04-22T14:27:38.344Z,25.25
2023-04-22T14:30:47.853Z,25.64
2023-04-22T14:34:03.071Z,25.23
2023-04-22T14:37:11.950Z,25.88
2023-04-22T14:40:19.820Z,25.78
2023-04-22T14:43:28.485Z,25.89
2023-04-22T14:46:38.161Z,26.12
2023-04-22T14:49:59.843Z,25.97
2023-04-22T14:53:01.842Z,26.67
2023-04-22T14:56:16.850Z,26.97
2023-04-22T14:59:31.821Z,27.53
2023-04-22T15:02:34.323Z,26.81
2023-04-22T15:09:17.842Z,26.28
2023-04-22T15:12:25.942Z,26.16
2023-04-22T15:15:41.955Z,26.17
2023-04-22T15:18:44.291Z,26.01
2023-04-22T15:22:08.870Z,26.05
2023-04-22T15:25:23.561Z,25.91
2023-04-22T15:28:37.837Z,26.05
2023-04-22T15:31:46.662Z,25.81
2023-04-22T15:35:00.933Z,25.75
2023-04-22T15:38:09.866Z,25.97
2023-04-22T15:41:18.448Z,26.41
2023-04-22T15:44:32.962Z,26.98
2023-04-22T15:47:48.242Z,26.58
2023-04-22T15:50:56.858Z,26.66
2023-04-22T15:54:06.079Z,27.09
2023-04-22T15:57:13.887Z,28.41
2023-04-22T16:00:28.915Z,27.42
2023-04-22T16:03:38.800Z,27.43
2023-04-22T16:06:49.616Z,27.50
2023-04-22T16:09:58.892Z,27.89
2023-04-22T16:13:07.897Z,27.23
2023-04-22T16:16:16.164Z,27.50
2023-04-22T16:19:31.133Z,27.47
2023-04-22T16:22:32.993Z,27.72
2023-04-22T16:25:47.925Z,27.76
2023-04-22T16:28:56.575Z,28.17
2023-04-22T16:32:04.888Z,28.23
2023-04-22T16:35:13.546Z,28.04
2023-04-22T16:38:22.898Z,28.29
2023-04-22T16:41:37.931Z,28.11
2023-04-22T16:44:52.891Z,28.12
2023-04-22T16:48:07.907Z,28.40
2023-04-22T16:51:16.718Z,28.47
2023-04-22T16:54:24.918Z,28.53
2023-04-22T16:57:33.946Z,28.59
2023-04-22T17:00:45.293Z,29.04
2023-04-22T17:03:57.058Z,28.97
2023-04-22T17:13:55.926Z,29.35
2023-04-22T17:17:10.949Z,29.46
2023-04-22T17:20:12.888Z,29.64
2023-04-22T17:23:28.027Z,29.81
2023-04-22T17:26:29.985Z,29.79
2023-04-22T17:29:44.948Z,30.15
2023-04-22T17:32:47.255Z,30.42
2023-04-22T17:36:02.948Z,30.70
2023-04-22T17:39:13.717Z,31.00
2023-04-22T17:42:38.968Z,30.84
2023-04-22T17:46:00.989Z,31.12
2023-04-22T17:49:22.961Z,31.85
2023-04-22T17:52:25.108Z,31.54
2023-04-22T17:55:42.056Z,31.87
2023-04-22T17:58:50.500Z,32.48
2023-04-22T18:02:05.096Z,32.25
2023-04-22T18:05:07.662Z,32.35
2023-04-22T18:08:22.996Z,32.41
2023-04-22T18:11:39.210Z,32.74
2023-04-22T18:14:41.449Z,32.68
2023-04-22T18:17:57.011Z,33.36
2023-04-22T18:21:05.952Z,33.27
2023-04-22T18:24:18.729Z,33.71
2023-04-22T18:27:28.072Z,33.56
2023-04-22T18:30:46.261Z,33.89
2023-04-22T18:33:55.091Z,34.18
2023-04-22T18:37:02.961Z,34.97
2023-04-22T18:40:13.353Z,34.64
2023-04-22T18:43:28.093Z,35.36
2023-04-22T18:46:29.905Z,35.23
2023-04-22T18:49:51.954Z,34.71
2023-04-22T18:52:56.665Z,35.04
2023-04-22T18:56:10.996Z,35.84
2023-04-22T18:59:22.893Z,36.08
2023-04-22T19:02:31.069Z,36.33
2023-04-22T19:05:39.573Z,36.66
2023-04-22T19:08:47.997Z,37.06
2023-04-22T19:11:56.595Z,36.92
2023-04-22T19:15:05.005Z,37.10
2023-04-22T19:18:13.569Z,37.39
2023-04-22T19:21:23.250Z,37.66
2023-04-22T19:24:32.642Z,37.46
2023-04-22T19:27:49.232Z,37.48
2023-04-22T19:34:19.994Z,37.77
2023-04-22T19:37:37.024Z,37.92
2023-04-22T19:40:39.544Z,38.14
2023-04-22T19:43:55.226Z,37.86
2023-04-22T19:47:05.621Z,38.36
2023-04-22T19:50:20.726Z,37.90
2023-04-22T19:53:30.037Z,38.85
2023-04-22T19:56:39.743Z,38.12
2023-04-22T19:59:55.766Z,38.39
2023-04-22T20:02:58.902Z,38.57
2023-04-22T20:06:18.802Z,39.57
2023-04-22T20:09:21.325Z,39.51
2023-04-22T20:12:37.082Z,39.63
2023-04-22T20:15:38.979Z,39.68
2023-04-22T20:18:54.049Z,39.39
2023-04-22T20:21:56.483Z,39.98
2023-04-22T20:25:12.030Z,40.22
2023-04-22T20:28:20.755Z,40.17
2023-04-22T20:31:36.119Z,40.39
2023-04-22T20:34:44.145Z,40.81
2023-04-22T20:37:55.309Z,40.76
2023-04-22T20:41:12.057Z,41.47
2023-04-22T20:44:20.041Z,42.04
2023-04-22T20:47:35.094Z,42.95
2023-04-22T20:50:43.293Z,42.75
2023-04-22T20:54:09.743Z,42.59
2023-04-22T20:57:25.719Z,42.21
2023-04-22T21:00:34.098Z,41.35
2023-04-22T21:03:50.230Z,41.52
2023-04-22T21:07:00.168Z,41.65
2023-04-22T21:10:10.707Z,41.90
2023-04-22T21:13:26.403Z,41.98
2023-04-22T21:16:46.108Z,42.28
2023-04-22T21:19:57.718Z,42.05
2023-04-22T21:23:07.559Z,41.94
2023-04-22T21:26:17.071Z,42.05
2023-04-22T21:29:35.071Z,41.87
2023-04-22T21:32:44.149Z,42.78
2023-04-22T21:35:52.873Z,42.26
2023-04-22T21:39:07.176Z,42.21
2023-04-22T21:42:09.244Z,42.05
2023-04-22T21:45:24.070Z,42.05
2023-04-22T21:48:39.090Z,42.68
2023-04-22T21:51:54.074Z,42.75
2023-04-22T21:55:04.146Z,42.60
2023-04-22T21:58:20.947Z,42.41
2023-04-22T22:01:23.026Z,42.78
2023-04-22T22:04:39.689Z,42.43
2023-04-22T22:07:50.109Z,42.70
2023-04-22T22:11:01.830Z,43.06
2023-04-22T22:14:24.331Z,43.44
2023-04-22T22:17:32.953Z,43.84
2023-04-22T22:20:49.088Z,43.37
2023-04-22T22:23:59.384Z,43.49
2023-04-22T22:27:14.414Z,44.40
2023-04-22T22:30:26.100Z,44.51
2023-04-22T22:33:41.320Z,45.10
2023-04-22T22:36:44.128Z,44.79
2023-04-22T22:39:59.102Z,45.25
2023-04-22T22:43:07.945Z,45.57
2023-04-22T22:46:23.386Z,45.25
2023-04-22T22:49:34.474Z,45.63
2023-04-22T22:52:49.126Z,45.74
2023-04-22T22:55:50.810Z,45.67
2023-04-22T22:59:08.283Z,45.30
2023-04-22T23:02:10.172Z,45.84
2023-04-22T23:05:25.118Z,46.01
2023-04-22T23:08:33.169Z,46.06
2023-04-22T23:11:42.079Z,46.43
2023-04-22T23:14:50.242Z,50.28
2023-04-22T23:17:58.726Z,51.30
2023-04-22T23:21:08.393Z,50.31
2023-04-22T23:24:23.127Z,50.00
2023-04-22T23:27:25.663Z,50.36
2023-04-22T23:30:40.191Z,51.29
2023-04-22T23:33:49.173Z,51.47
2023-04-22T23:37:04.126Z,51.53
2023-04-22T23:40:06.496Z,51.59
2023-04-22T23:43:21.141Z,51.66
2023-04-22T23:46:23.321Z,53.51
2023-04-22T23:49:38.141Z,53.71
2023-04-22T23:52:53.171Z,53.00
2023-04-22T23:56:02.286Z,53.41
2023-04-22T23:59:10.198Z,53.77
